sensor_id;sensor_type;location;lat;lon;timestamp;temperature;humidity
18894;DHT22;9579;49.488;8.226;2022-12-07T06:01:50;7.90;99.90
18894;DHT22;9579;49.488;8.226;2022-12-07T06:04:51;7.90;99.90
18894;DHT22;9579;49.488;8.226;2022-12-07T06:07:41;7.90;99.90
18894;DHT22;9579;49.488;8.226;2022-12-07T06:10:32;8.00;99.90
18894;DHT22;9579;49.488;8.226;2022-12-07T06:13:33;8.00;99.90
18894;DHT22;9579;49.488;8.226;2022-12-07T06:16:41;8.00;99.90
18894;DHT22;9579;49.488;8.226;2022-12-07T06:28:10;8.00;99.90
18894;DHT22;9579;49.488;8.226;2022-12-07T06:30:58;7.80;99.90
18894;DHT22;9579;49.488;8.226;2022-12-07T06:33:51;7.40;99.90
18894;DHT22;9579;49.488;8.226;2022-12-07T06:38:10;7.60;99.90
18894;DHT22;9579;49.488;8.226;2022-12-07T06:40:54;7.80;99.90
18894;DHT22;9579;49.488;8.226;2022-12-07T06:44:29;7.90;99.90
18894;DHT22;9579;49.488;8.226;2022-12-07T06:48:07;8.00;99.90
18894;DHT22;9579;49.488;8.226;2022-12-07T06:57:38;8.10;99.90
18894;DHT22;9579;49.488;8.226;2022-12-07T07:04:15;8.20;99.90
18894;DHT22;9579;49.488;8.226;2022-12-07T07:07:25;8.10;99.90
18894;DHT22;9579;49.488;8.226;2022-12-07T07:14:25;8.20;99.90
18894;DHT22;9579;49.488;8.226;2022-12-07T07:24:37;8.20;99.90
18894;DHT22;9579;49.488;8.226;2022-12-07T07:27:38;7.80;99.90
18894;DHT22;9579;49.488;8.226;2022-12-07T07:30:35;7.90;99.90
18894;DHT22;9579;49.488;8.226;2022-12-07T07:33:39;8.00;99.90
18894;DHT22;9579;49.488;8.226;2022-12-07T07:37:09;8.00;99.90
18894;DHT22;9579;49.488;8.226;2022-12-07T07:48:29;8.10;99.90
18894;DHT22;9579;49.488;8.226;2022-12-07T07:52:27;8.10;99.90
18894;DHT22;9579;49.488;8.226;2022-12-07T07:55:39;8.10;99.90
18894;DHT22;9579;49.488;8.226;2022-12-07T07:58:52;8.20;99.90
18894;DHT22;9579;49.488;8.226;2022-12-07T08:02:48;7.90;99.90
18894;DHT22;9579;49.488;8.226;2022-12-07T08:05:56;7.90;99.90
18894;DHT22;9579;49.488;8.226;2022-12-07T08:08:43;8.10;99.90
18894;DHT22;9579;49.488;8.226;2022-12-07T08:15:25;8.30;99.90
18894;DHT22;9579;49.488;8.226;2022-12-07T08:22:19;8.40;99.90
18894;DHT22;9579;49.488;8.226;2022-12-07T08:25:23;8.50;99.90
18894;DHT22;9579;49.488;8.226;2022-12-07T08:32:43;7.90;99.90
18894;DHT22;9579;49.488;8.226;2022-12-07T09:03:28;8.50;99.90
18894;DHT22;9579;49.488;8.226;2022-12-07T09:06:07;8.40;99.90
18894;DHT22;9579;49.488;8.226;2022-12-07T09:09:00;8.40;99.90
18894;DHT22;9579;49.488;8.226;2022-12-07T09:12:00;8.40;99.90
18894;DHT22;9579;49.488;8.226;2022-12-07T09:14:48;8.40;99.90
18894;DHT22;9579;49.488;8.226;2022-12-07T09:32:21;8.70;99.90
18894;DHT22;9579;49.488;8.226;2022-12-07T09:42:55;9.10;99.90
18894;DHT22;9579;49.488;8.226;2022-12-07T09:49:41;9.20;99.90
18894;DHT22;9579;49.488;8.226;2022-12-07T09:52:31;9.20;99.90
18894;DHT22;9579;49.488;8.226;2022-12-07T09:59:05;9.30;99.90
18894;DHT22;9579;49.488;8.226;2022-12-07T10:04:05;9.30;99.90
18894;DHT22;9579;49.488;8.226;2022-12-07T10:18:14;9.30;99.90
18894;DHT22;9579;49.488;8.226;2022-12-07T10:29:57;9.30;99.90
18894;DHT22;9579;49.488;8.226;2022-12-07T10:49:03;9.60;99.90
18894;DHT22;9579;49.488;8.226;2022-12-07T10:52:48;9.60;99.90
18894;DHT22;9579;49.488;8.226;2022-12-07T11:21:56;9.30;99.90
18894;DHT22;9579;49.488;8.226;2022-12-07T11:24:49;9.40;99.90
18894;DHT22;9579;49.488;8.226;2022-12-07T11:27:47;9.40;99.90
18894;DHT22;9579;49.488;8.226;2022-12-07T11:30:40;9.40;99.90
18894;DHT22;9579;49.488;8.226;2022-12-07T11:33:36;9.50;99.90
18894;DHT22;9579;49.488;8.226;2022-12-07T11:36:37;9.60;99.90
18894;DHT22;9579;49.488;8.226;2022-12-07T11:39:33;9.60;99.90
18894;DHT22;9579;49.488;8.226;2022-12-07T11:42:22;9.60;99.90
18894;DHT22;9579;49.488;8.226;2022-12-07T11:45:15;9.50;99.90
18894;DHT22;9579;49.488;8.226;2022-12-07T11:48:06;9.50;99.90
18894;DHT22;9579;49.488;8.226;2022-12-07T11:50:59;9.70;99.90
18894;DHT22;9579;49.488;8.226;2022-12-07T11:53:51;9.70;99.90
18894;DHT22;9579;49.488;8.226;2022-12-07T11:56:41;9.80;99.90
18894;DHT22;9579;49.488;8.226;2022-12-07T11:59:32;9.80;99.90
18894;DHT22;9579;49.488;8.226;2022-12-07T12:02:26;9.80;99.90
18894;DHT22;9579;49.488;8.226;2022-12-07T12:05:17;9.90;99.90
18894;DHT22;9579;49.488;8.226;2022-12-07T12:08:13;10.00;99.90
18894;DHT22;9579;49.488;8.226;2022-12-07T12:11:11;10.10;99.90
18894;DHT22;9579;49.488;8.226;2022-12-07T12:14:21;10.10;99.90
18894;DHT22;9579;49.488;8.226;2022-12-07T12:17:37;10.20;99.90
18894;DHT22;9579;49.488;8.226;2022-12-07T12:20:32;10.20;99.90
18894;DHT22;9579;49.488;8.226;2022-12-07T12:23:23;10.10;99.90
18894;DHT22;9579;49.488;8.226;2022-12-07T12:26:17;10.00;99.90
18894;DHT22;9579;49.488;8.226;2022-12-07T12:29:05;9.90;99.90
18894;DHT22;9579;49.488;8.226;2022-12-07T12:32:17;9.90;99.90
18894;DHT22;9579;49.488;8.226;2022-12-07T12:35:28;10.00;99.90
18894;DHT22;9579;49.488;8.226;2022-12-07T12:38:29;10.00;99.90
18894;DHT22;9579;49.488;8.226;2022-12-07T12:45:18;10.70;99.90
18894;DHT22;9579;49.488;8.226;2022-12-07T12:48:37;10.80;99.90
18894;DHT22;9579;49.488;8.226;2022-12-07T12:51:37;10.70;99.90
18894;DHT22;9579;49.488;8.226;2022-12-07T12:54:26;10.50;99.80
18894;DHT22;9579;49.488;8.226;2022-12-07T12:57:18;10.40;99.80
18894;DHT22;9579;49.488;8.226;2022-12-07T13:00:17;10.50;99.90
18894;DHT22;9579;49.488;8.226;2022-12-07T13:03:05;10.30;99.90
18894;DHT22;9579;49.488;8.226;2022-12-07T13:09:20;10.20;99.90
18894;DHT22;9579;49.488;8.226;2022-12-07T13:12:13;10.20;99.90
18894;DHT22;9579;49.488;8.226;2022-12-07T13:15:01;10.20;99.90
18894;DHT22;9579;49.488;8.226;2022-12-07T13:18:01;10.30;99.90
18894;DHT22;9579;49.488;8.226;2022-12-07T13:20:55;10.80;99.90
18894;DHT22;9579;49.488;8.226;2022-12-07T13:23:54;11.60;99.90
18894;DHT22;9579;49.488;8.226;2022-12-07T13:26:43;12.40;98.80
18894;DHT22;9579;49.488;8.226;2022-12-07T13:29:36;12.60;97.40
18894;DHT22;9579;49.488;8.226;2022-12-07T13:32:26;12.50;98.00
18894;DHT22;9579;49.488;8.226;2022-12-07T13:35:34;12.30;97.40
18894;DHT22;9579;49.488;8.226;2022-12-07T13:38:29;12.00;97.30
18894;DHT22;9579;49.488;8.226;2022-12-07T13:41:18;11.60;97.70
18894;DHT22;9579;49.488;8.226;2022-12-07T13:44:10;11.30;99.00
18894;DHT22;9579;49.488;8.226;2022-12-07T13:47:01;11.00;98.80
18894;DHT22;9579;49.488;8.226;2022-12-07T13:49:54;10.80;98.70
18894;DHT22;9579;49.488;8.226;2022-12-07T13:52:43;10.60;98.80
18894;DHT22;9579;49.488;8.226;2022-12-07T13:55:36;10.60;98.90
18894;DHT22;9579;49.488;8.226;2022-12-07T13:58:23;10.40;98.80
18894;DHT22;9579;49.488;8.226;2022-12-07T14:01:12;10.40;99.90
18894;DHT22;9579;49.488;8.226;2022-12-07T14:04:18;10.40;99.30
18894;DHT22;9579;49.488;8.226;2022-12-07T14:07:20;10.50;99.00
18894;DHT22;9579;49.488;8.226;2022-12-07T14:10:24;10.80;99.80
18894;DHT22;9579;49.488;8.226;2022-12-07T14:13:28;12.00;98.00
18894;DHT22;9579;49.488;8.226;2022-12-07T14:16:24;12.10;97.40
18894;DHT22;9579;49.488;8.226;2022-12-07T14:19:41;11.80;97.20
18894;DHT22;9579;49.488;8.226;2022-12-07T14:22:31;11.50;97.80
18894;DHT22;9579;49.488;8.226;2022-12-07T14:25:21;12.40;98.40
18894;DHT22;9579;49.488;8.226;2022-12-07T14:28:27;14.00;95.20
18894;DHT22;9579;49.488;8.226;2022-12-07T14:31:16;14.30;94.60
18894;DHT22;9579;49.488;8.226;2022-12-07T14:34:04;13.80;94.50
18894;DHT22;9579;49.488;8.226;2022-12-07T14:36:51;13.30;95.20
18894;DHT22;9579;49.488;8.226;2022-12-07T14:39:39;12.80;95.90
18894;DHT22;9579;49.488;8.226;2022-12-07T14:42:28;12.20;96.80
18894;DHT22;9579;49.488;8.226;2022-12-07T14:45:19;11.70;96.80
18894;DHT22;9579;49.488;8.226;2022-12-07T14:48:07;11.30;97.40
18894;DHT22;9579;49.488;8.226;2022-12-07T14:50:58;11.00;97.80
18894;DHT22;9579;49.488;8.226;2022-12-07T14:53:49;10.70;98.70
18894;DHT22;9579;49.488;8.226;2022-12-07T14:56:36;10.60;99.30
18894;DHT22;9579;49.488;8.226;2022-12-07T14:59:26;10.50;99.40
18894;DHT22;9579;49.488;8.226;2022-12-07T15:02:14;10.40;99.40
18894;DHT22;9579;49.488;8.226;2022-12-07T15:05:01;10.30;98.90
18894;DHT22;9579;49.488;8.226;2022-12-07T15:07:50;10.20;99.30
18894;DHT22;9579;49.488;8.226;2022-12-07T15:10:37;10.00;99.40
18894;DHT22;9579;49.488;8.226;2022-12-07T15:13:30;9.90;99.90
18894;DHT22;9579;49.488;8.226;2022-12-07T15:16:34;9.80;99.90
18894;DHT22;9579;49.488;8.226;2022-12-07T15:19:26;9.60;99.90
18894;DHT22;9579;49.488;8.226;2022-12-07T15:22:13;9.60;99.90
18894;DHT22;9579;49.488;8.226;2022-12-07T15:25:04;9.50;99.90
18894;DHT22;9579;49.488;8.226;2022-12-07T15:27:52;9.50;99.90
18894;DHT22;9579;49.488;8.226;2022-12-07T15:30:40;9.40;99.90
18894;DHT22;9579;49.488;8.226;2022-12-07T15:33:29;9.30;99.90
18894;DHT22;9579;49.488;8.226;2022-12-07T15:36:19;9.20;99.90
18894;DHT22;9579;49.488;8.226;2022-12-07T15:39:08;9.10;99.90
18894;DHT22;9579;49.488;8.226;2022-12-07T15:41:57;9.10;99.90
18894;DHT22;9579;49.488;8.226;2022-12-07T15:44:44;9.10;99.90
18894;DHT22;9579;49.488;8.226;2022-12-07T15:47:54;9.00;99.90
18894;DHT22;9579;49.488;8.226;2022-12-07T15:50:42;8.90;99.90
18894;DHT22;9579;49.488;8.226;2022-12-07T15:53:29;8.80;99.90
18894;DHT22;9579;49.488;8.226;2022-12-07T15:56:21;8.70;99.90
18894;DHT22;9579;49.488;8.226;2022-12-07T15:59:09;8.60;99.90
18894;DHT22;9579;49.488;8.226;2022-12-07T16:01:56;8.50;99.90
18894;DHT22;9579;49.488;8.226;2022-12-07T16:04:44;8.40;99.90
18894;DHT22;9579;49.488;8.226;2022-12-07T16:07:31;8.40;99.90
18894;DHT22;9579;49.488;8.226;2022-12-07T16:10:18;8.30;99.90
18894;DHT22;9579;49.488;8.226;2022-12-07T16:13:05;8.30;99.90
18894;DHT22;9579;49.488;8.226;2022-12-07T16:15:53;8.30;99.90
18894;DHT22;9579;49.488;8.226;2022-12-07T16:18:51;8.20;99.90
18894;DHT22;9579;49.488;8.226;2022-12-07T16:21:49;8.00;99.90
18894;DHT22;9579;49.488;8.226;2022-12-07T16:24:36;7.90;99.90
18894;DHT22;9579;49.488;8.226;2022-12-07T16:27:23;7.90;99.90
18894;DHT22;9579;49.488;8.226;2022-12-07T16:30:13;7.90;99.90
18894;DHT22;9579;49.488;8.226;2022-12-07T16:33:04;7.90;99.90
18894;DHT22;9579;49.488;8.226;2022-12-07T16:35:51;8.00;99.90
18894;DHT22;9579;49.488;8.226;2022-12-07T16:38:38;8.00;99.90
18894;DHT22;9579;49.488;8.226;2022-12-07T16:41:26;8.00;99.90
18894;DHT22;9579;49.488;8.226;2022-12-07T16:44:19;8.00;99.90
18894;DHT22;9579;49.488;8.226;2022-12-07T16:47:06;8.00;99.90
18894;DHT22;9579;49.488;8.226;2022-12-07T16:49:54;7.90;99.90
18894;DHT22;9579;49.488;8.226;2022-12-07T16:52:42;7.90;99.90
18894;DHT22;9579;49.488;8.226;2022-12-07T16:55:29;7.90;99.90
18894;DHT22;9579;49.488;8.226;2022-12-07T16:58:17;7.90;99.90
18894;DHT22;9579;49.488;8.226;2022-12-07T17:01:09;7.80;99.90
18894;DHT22;9579;49.488;8.226;2022-12-07T17:03:57;7.70;99.90
18894;DHT22;9579;49.488;8.226;2022-12-07T17:06:46;7.50;99.90
18894;DHT22;9579;49.488;8.226;2022-12-07T17:09:33;7.60;99.90
18894;DHT22;9579;49.488;8.226;2022-12-07T17:12:20;7.50;99.90
18894;DHT22;9579;49.488;8.226;2022-12-07T17:15:08;7.40;99.90
18894;DHT22;9579;49.488;8.226;2022-12-07T17:18:06;7.40;99.90
18894;DHT22;9579;49.488;8.226;2022-12-07T17:20:53;7.40;99.90
18894;DHT22;9579;49.488;8.226;2022-12-07T17:23:42;7.40;99.90
18894;DHT22;9579;49.488;8.226;2022-12-07T17:26:29;7.40;99.90
18894;DHT22;9579;49.488;8.226;2022-12-07T17:29:17;7.40;99.90
18894;DHT22;9579;49.488;8.226;2022-12-07T17:32:10;7.50;99.90
18894;DHT22;9579;49.488;8.226;2022-12-07T17:34:57;7.50;99.90
18894;DHT22;9579;49.488;8.226;2022-12-07T17:37:45;7.40;99.90
18894;DHT22;9579;49.488;8.226;2022-12-07T17:40:33;7.40;99.90
18894;DHT22;9579;49.488;8.226;2022-12-07T17:43:20;7.40;99.90
18894;DHT22;9579;49.488;8.226;2022-12-07T17:46:10;7.40;99.90
18894;DHT22;9579;49.488;8.226;2022-12-07T17:48:58;7.40;99.90
18894;DHT22;9579;49.488;8.226;2022-12-07T17:51:48;7.50;99.90
18894;DHT22;9579;49.488;8.226;2022-12-07T17:54:53;7.50;99.90
18894;DHT22;9579;49.488;8.226;2022-12-07T17:57:41;7.30;99.90
18894;DHT22;9579;49.488;8.226;2022-12-07T18:00:28;7.30;99.90
18894;DHT22;9579;49.488;8.226;2022-12-07T18:03:15;7.40;99.90
18894;DHT22;9579;49.488;8.226;2022-12-07T18:06:03;7.30;99.90
18894;DHT22;9579;49.488;8.226;2022-12-07T18:08:50;7.30;99.90
18894;DHT22;9579;49.488;8.226;2022-12-07T18:11:38;7.30;99.90
18894;DHT22;9579;49.488;8.226;2022-12-07T18:14:29;7.30;99.90
18894;DHT22;9579;49.488;8.226;2022-12-07T18:17:16;7.30;99.90
18894;DHT22;9579;49.488;8.226;2022-12-07T18:20:07;7.40;99.90
18894;DHT22;9579;49.488;8.226;2022-12-07T18:22:54;7.30;99.90
18894;DHT22;9579;49.488;8.226;2022-12-07T18:25:46;7.30;99.90
18894;DHT22;9579;49.488;8.226;2022-12-07T18:28:36;7.30;99.90
18894;DHT22;9579;49.488;8.226;2022-12-07T18:31:24;7.30;99.90
18894;DHT22;9579;49.488;8.226;2022-12-07T18:34:13;7.30;99.90
18894;DHT22;9579;49.488;8.226;2022-12-07T18:37:01;7.40;99.90
18894;DHT22;9579;49.488;8.226;2022-12-07T18:39:48;7.40;99.90
18894;DHT22;9579;49.488;8.226;2022-12-07T18:42:35;7.40;99.90
18894;DHT22;9579;49.488;8.226;2022-12-07T18:45:22;7.50;99.90
18894;DHT22;9579;49.488;8.226;2022-12-07T18:48:10;7.40;99.90
18894;DHT22;9579;49.488;8.226;2022-12-07T18:50:59;7.40;99.90
18894;DHT22;9579;49.488;8.226;2022-12-07T18:53:47;7.40;99.90
18894;DHT22;9579;49.488;8.226;2022-12-07T18:56:34;7.40;99.90
18894;DHT22;9579;49.488;8.226;2022-12-07T18:59:23;7.30;99.90
18894;DHT22;9579;49.488;8.226;2022-12-07T19:02:27;7.20;99.90
18894;DHT22;9579;49.488;8.226;2022-12-07T19:05:16;7.20;99.90
18894;DHT22;9579;49.488;8.226;2022-12-07T19:08:04;7.20;99.90
18894;DHT22;9579;49.488;8.226;2022-12-07T19:10:51;7.10;99.90
18894;DHT22;9579;49.488;8.226;2022-12-07T19:13:38;7.10;99.90
18894;DHT22;9579;49.488;8.226;2022-12-07T19:16:25;7.00;99.90
18894;DHT22;9579;49.488;8.226;2022-12-07T19:19:17;7.00;99.90
18894;DHT22;9579;49.488;8.226;2022-12-07T19:22:16;7.00;99.90
18894;DHT22;9579;49.488;8.226;2022-12-07T19:25:17;7.00;99.90
18894;DHT22;9579;49.488;8.226;2022-12-07T19:28:04;7.00;99.90
18894;DHT22;9579;49.488;8.226;2022-12-07T19:30:51;7.00;99.90
18894;DHT22;9579;49.488;8.226;2022-12-07T19:33:40;7.00;99.90
18894;DHT22;9579;49.488;8.226;2022-12-07T19:36:28;7.00;99.90
18894;DHT22;9579;49.488;8.226;2022-12-07T19:39:17;6.90;99.90
18894;DHT22;9579;49.488;8.226;2022-12-07T19:42:05;6.90;99.90
18894;DHT22;9579;49.488;8.226;2022-12-07T19:44:52;6.90;99.90
18894;DHT22;9579;49.488;8.226;2022-12-07T19:47:39;6.90;99.90
18894;DHT22;9579;49.488;8.226;2022-12-07T19:50:26;6.90;99.90
18894;DHT22;9579;49.488;8.226;2022-12-07T19:53:13;7.00;99.90
18894;DHT22;9579;49.488;8.226;2022-12-07T19:56:01;6.90;99.90
18894;DHT22;9579;49.488;8.226;2022-12-07T19:58:48;6.90;99.90
18894;DHT22;9579;49.488;8.226;2022-12-07T20:01:40;7.00;99.90
18894;DHT22;9579;49.488;8.226;2022-12-07T20:04:29;7.00;99.90
18894;DHT22;9579;49.488;8.226;2022-12-07T20:07:17;7.10;99.90
18894;DHT22;9579;49.488;8.226;2022-12-07T20:10:05;7.10;99.90
18894;DHT22;9579;49.488;8.226;2022-12-07T20:12:54;7.20;99.90
18894;DHT22;9579;49.488;8.226;2022-12-07T20:16:02;7.10;99.90
18894;DHT22;9579;49.488;8.226;2022-12-07T20:18:50;7.10;99.90
18894;DHT22;9579;49.488;8.226;2022-12-07T20:21:38;7.10;99.90
18894;DHT22;9579;49.488;8.226;2022-12-07T20:24:25;7.10;99.90
18894;DHT22;9579;49.488;8.226;2022-12-07T20:27:12;7.20;99.90
18894;DHT22;9579;49.488;8.226;2022-12-07T20:30:02;7.20;99.90
18894;DHT22;9579;49.488;8.226;2022-12-07T20:32:49;7.20;99.90
18894;DHT22;9579;49.488;8.226;2022-12-07T20:35:36;7.30;99.90
18894;DHT22;9579;49.488;8.226;2022-12-07T20:38:23;7.30;99.90
18894;DHT22;9579;49.488;8.226;2022-12-07T20:41:25;7.20;99.90
18894;DHT22;9579;49.488;8.226;2022-12-07T20:44:35;7.40;99.90
18894;DHT22;9579;49.488;8.226;2022-12-07T20:47:23;7.40;99.90
18894;DHT22;9579;49.488;8.226;2022-12-07T20:50:10;7.40;99.90
18894;DHT22;9579;49.488;8.226;2022-12-07T20:52:57;7.30;99.90
18894;DHT22;9579;49.488;8.226;2022-12-07T20:55:44;7.30;99.90
18894;DHT22;9579;49.488;8.226;2022-12-07T20:58:31;7.20;99.90
18894;DHT22;9579;49.488;8.226;2022-12-07T21:01:25;7.20;99.90
18894;DHT22;9579;49.488;8.226;2022-12-07T21:04:15;7.20;99.90
18894;DHT22;9579;49.488;8.226;2022-12-07T21:07:03;7.10;99.90
18894;DHT22;9579;49.488;8.226;2022-12-07T21:09:50;7.10;99.90
18894;DHT22;9579;49.488;8.226;2022-12-07T21:12:37;7.10;99.90
18894;DHT22;9579;49.488;8.226;2022-12-07T21:15:24;7.00;99.90
18894;DHT22;9579;49.488;8.226;2022-12-07T21:18:11;7.00;99.90
18894;DHT22;9579;49.488;8.226;2022-12-07T21:21:01;7.00;99.90
18894;DHT22;9579;49.488;8.226;2022-12-07T21:23:50;7.10;99.90
18894;DHT22;9579;49.488;8.226;2022-12-07T21:26:43;7.00;99.90
18894;DHT22;9579;49.488;8.226;2022-12-07T21:29:31;7.00;99.90
18894;DHT22;9579;49.488;8.226;2022-12-07T21:32:20;6.80;99.90
18894;DHT22;9579;49.488;8.226;2022-12-07T21:35:08;6.90;99.90
18894;DHT22;9579;49.488;8.226;2022-12-07T21:37:58;6.80;99.90
18894;DHT22;9579;49.488;8.226;2022-12-07T21:40:49;6.90;99.90
18894;DHT22;9579;49.488;8.226;2022-12-07T21:43:51;6.80;99.90
18894;DHT22;9579;49.488;8.226;2022-12-07T21:46:40;6.90;99.90
18894;DHT22;9579;49.488;8.226;2022-12-07T21:49:27;6.80;99.90
18894;DHT22;9579;49.488;8.226;2022-12-07T21:52:15;6.90;99.90
18894;DHT22;9579;49.488;8.226;2022-12-07T21:55:04;6.90;99.90
18894;DHT22;9579;49.488;8.226;2022-12-07T21:57:54;6.80;99.90
18894;DHT22;9579;49.488;8.226;2022-12-07T22:00:52;6.80;99.90
18894;DHT22;9579;49.488;8.226;2022-12-07T22:03:39;6.50;99.90
18894;DHT22;9579;49.488;8.226;2022-12-07T22:06:26;6.30;99.90
18894;DHT22;9579;49.488;8.226;2022-12-07T22:09:27;6.60;99.90
18894;DHT22;9579;49.488;8.226;2022-12-07T22:12:23;6.60;99.90
18894;DHT22;9579;49.488;8.226;2022-12-07T22:15:10;6.60;99.90
18894;DHT22;9579;49.488;8.226;2022-12-07T22:17:59;6.80;99.90
18894;DHT22;9579;49.488;8.226;2022-12-07T22:20:46;6.70;99.90
18894;DHT22;9579;49.488;8.226;2022-12-07T22:23:41;6.70;99.90
18894;DHT22;9579;49.488;8.226;2022-12-07T22:26:28;6.80;99.90
18894;DHT22;9579;49.488;8.226;2022-12-07T22:29:17;6.80;99.90
18894;DHT22;9579;49.488;8.226;2022-12-07T22:32:04;6.80;99.90
18894;DHT22;9579;49.488;8.226;2022-12-07T22:34:51;6.80;99.90
18894;DHT22;9579;49.488;8.226;2022-12-07T22:37:46;6.50;99.90
18894;DHT22;9579;49.488;8.226;2022-12-07T22:40:48;6.40;99.90
18894;DHT22;9579;49.488;8.226;2022-12-07T22:43:39;6.10;99.90
18894;DHT22;9579;49.488;8.226;2022-12-07T22:46:30;5.90;99.90
18894;DHT22;9579;49.488;8.226;2022-12-07T22:49:18;6.10;99.90
18894;DHT22;9579;49.488;8.226;2022-12-07T22:52:08;6.20;99.90
18894;DHT22;9579;49.488;8.226;2022-12-07T22:54:58;6.50;99.90
18894;DHT22;9579;49.488;8.226;2022-12-07T22:57:48;6.60;99.90
18894;DHT22;9579;49.488;8.226;2022-12-07T23:00:38;6.70;99.90
18894;DHT22;9579;49.488;8.226;2022-12-07T23:03:28;6.70;99.90
18894;DHT22;9579;49.488;8.226;2022-12-07T23:06:17;6.70;99.90
18894;DHT22;9579;49.488;8.226;2022-12-07T23:09:10;6.70;99.90
18894;DHT22;9579;49.488;8.226;2022-12-07T23:11:58;6.70;99.90
18894;DHT22;9579;49.488;8.226;2022-12-07T23:15:03;6.70;99.90
18894;DHT22;9579;49.488;8.226;2022-12-07T23:17:50;6.50;99.90
18894;DHT22;9579;49.488;8.226;2022-12-07T23:20:39;6.50;99.90
18894;DHT22;9579;49.488;8.226;2022-12-07T23:23:26;6.40;99.90
18894;DHT22;9579;49.488;8.226;2022-12-07T23:26:13;6.40;99.90
18894;DHT22;9579;49.488;8.226;2022-12-07T23:29:00;6.50;99.90
